createdAt,value
2019-05-02T00:01:50.107Z,83.20
2019-05-02T00:06:56.680Z,83.80
2019-05-02T00:12:02.011Z,83.80
2019-05-02T00:17:06.996Z,83.90
2019-05-02T00:22:16.656Z,84.40
2019-05-02T00:27:18.521Z,84.90
2019-05-02T00:32:23.667Z,85.30
2019-05-02T00:37:28.577Z,85.70
2019-05-02T00:42:33.402Z,85.80
2019-05-02T00:47:42.163Z,85.50
2019-05-02T00:52:46.430Z,84.60
2019-05-02T00:57:55.750Z,84.80
2019-05-02T01:02:59.703Z,85.50
2019-05-02T01:08:04.649Z,85.40
2019-05-02T01:13:09.477Z,85.50
2019-05-02T01:18:14.298Z,85.80
2019-05-02T01:23:23.039Z,86.00
2019-05-02T01:28:27.250Z,85.90
2019-05-02T01:33:36.899Z,85.90
2019-05-02T01:38:41.850Z,86.00
2019-05-02T01:43:46.652Z,85.90
2019-05-02T01:48:51.393Z,85.20
2019-05-02T01:53:56.290Z,84.50
2019-05-02T01:59:00.995Z,84.10
2019-05-02T02:04:05.878Z,83.40
2019-05-02T02:09:10.738Z,83.40
2019-05-02T02:14:18.568Z,83.90
2019-05-02T02:19:23.730Z,83.90
2019-05-02T02:24:30.264Z,83.40
2019-05-02T02:29:39.114Z,83.00
2019-05-02T02:34:41.627Z,82.50
2019-05-02T02:39:48.364Z,82.30
2019-05-02T02:44:54.573Z,82.10
2019-05-02T02:50:02.446Z,82.20
2019-05-02T02:55:06.586Z,82.50
2019-05-02T03:00:12.959Z,82.60
2019-05-02T03:05:25.867Z,82.60
2019-05-02T03:10:24.513Z,81.40
2019-05-02T03:15:30.953Z,80.10
2019-05-02T03:20:40.719Z,79.90
2019-05-02T03:25:50.535Z,79.70
2019-05-02T03:30:48.902Z,79.50
2019-05-02T03:35:54.015Z,79.70
2019-05-02T03:40:58.811Z,79.70
2019-05-02T03:46:03.606Z,80.20
2019-05-02T03:51:19.237Z,79.80
2019-05-02T03:56:15.069Z,80.10
2019-05-02T04:01:20.200Z,80.40
2019-05-02T04:06:24.971Z,80.90
2019-05-02T04:11:37.933Z,81.30
2019-05-02T04:16:36.474Z,80.50
2019-05-02T04:21:41.399Z,79.60
2019-05-02T04:26:53.611Z,78.50
2019-05-02T04:31:52.675Z,77.70
2019-05-02T04:37:01.600Z,77.60
2019-05-02T04:42:11.918Z,77.20
2019-05-02T04:47:17.295Z,76.50
2019-05-02T04:52:21.081Z,75.10
2019-05-02T04:57:29.806Z,74.00
2019-05-02T05:02:36.328Z,75.70
2019-05-02T05:07:44.486Z,75.50
2019-05-02T05:12:45.360Z,73.90
2019-05-02T05:17:50.192Z,72.80
2019-05-02T05:22:54.966Z,72.20
2019-05-02T05:28:05.580Z,72.20
2019-05-02T05:33:07.592Z,72.00
2019-05-02T05:38:12.961Z,71.10
2019-05-02T05:43:20.433Z,71.10
2019-05-02T05:48:24.685Z,70.70
2019-05-02T05:53:29.581Z,70.70
2019-05-02T05:58:34.420Z,69.80
2019-05-02T06:03:44.600Z,70.00
2019-05-02T06:08:49.177Z,70.10
2019-05-02T06:13:53.233Z,69.80
2019-05-02T06:18:58.040Z,69.20
2019-05-02T06:24:02.987Z,69.30
2019-05-02T06:29:12.955Z,67.90
2019-05-02T06:34:16.418Z,66.70
2019-05-02T06:39:27.066Z,64.80
2019-05-02T06:44:30.179Z,62.30
2019-05-02T06:50:00.966Z,61.40
2019-05-02T06:55:01.738Z,62.40
2019-05-02T07:00:07.845Z,62.10
2019-05-02T07:05:13.261Z,61.90
2019-05-02T07:10:20.157Z,61.80
2019-05-02T07:15:26.611Z,62.00
2019-05-02T07:20:35.120Z,61.20
2019-05-02T07:25:43.945Z,61.40
2019-05-02T07:30:46.895Z,61.00
2019-05-02T07:35:55.306Z,60.70
2019-05-02T07:40:59.975Z,60.40
2019-05-02T07:46:07.494Z,59.90
2019-05-02T07:51:17.236Z,59.60
2019-05-02T07:56:19.592Z,60.50
2019-05-02T08:01:24.594Z,60.90
2019-05-02T08:06:35.439Z,61.80
2019-05-02T08:11:37.125Z,62.40
2019-05-02T08:16:43.497Z,63.10
2019-05-02T08:21:48.450Z,64.60
2019-05-02T08:26:58.379Z,64.80
2019-05-02T08:32:01.562Z,64.30
2019-05-02T08:37:06.469Z,63.90
2019-05-02T08:42:11.764Z,63.90
2019-05-02T08:47:18.948Z,63.60
2019-05-02T08:52:23.431Z,64.60
2019-05-02T08:57:30.050Z,63.20
2019-05-02T09:02:41.173Z,62.60
2019-05-02T09:07:43.037Z,62.80
2019-05-02T09:12:48.165Z,63.20
2019-05-02T09:17:56.438Z,63.00
2019-05-02T09:23:01.611Z,60.70
2019-05-02T09:28:06.438Z,59.80
2019-05-02T09:33:11.861Z,60.20
2019-05-02T09:38:16.815Z,59.30
2019-05-02T09:43:22.886Z,58.70
2019-05-02T09:48:28.183Z,59.40
2019-05-02T09:53:33.125Z,59.10
2019-05-02T09:58:38.095Z,58.70
2019-05-02T10:03:43.048Z,58.40
2019-05-02T10:08:48.562Z,57.90
2019-05-02T10:13:55.416Z,58.00
2019-05-02T10:19:00.322Z,57.20
2019-05-02T10:24:06.644Z,56.20
2019-05-02T10:29:12.772Z,55.60
2019-05-02T10:34:17.999Z,55.40
2019-05-02T10:39:23.653Z,54.90
2019-05-02T10:44:35.036Z,54.00
2019-05-02T10:49:37.828Z,55.20
2019-05-02T10:54:42.797Z,55.70
2019-05-02T10:59:47.795Z,55.40
2019-05-02T11:04:54.344Z,54.90
2019-05-02T11:10:06.815Z,55.00
2019-05-02T11:15:15.770Z,55.20
2019-05-02T11:20:22.585Z,56.40
2019-05-02T11:25:27.512Z,56.70
2019-05-02T11:30:32.387Z,55.30
2019-05-02T11:35:41.938Z,56.10
2019-05-02T11:40:43.935Z,56.00
2019-05-02T11:45:48.875Z,55.90
2019-05-02T11:50:53.912Z,56.00
2019-05-02T11:56:03.722Z,56.50
2019-05-02T12:01:05.956Z,56.80
2019-05-02T12:06:14.070Z,57.10
2019-05-02T12:11:17.942Z,57.50
2019-05-02T12:16:23.210Z,57.50
2019-05-02T12:21:28.281Z,56.90
2019-05-02T12:26:33.077Z,57.60
2019-05-02T12:31:37.830Z,56.80
2019-05-02T12:36:43.348Z,57.20
2019-05-02T12:41:48.713Z,56.40
2019-05-02T12:46:53.916Z,56.00
2019-05-02T12:51:58.977Z,56.30
2019-05-02T12:57:04.883Z,55.70
2019-05-02T13:02:12.177Z,55.90
2019-05-02T13:07:17.206Z,54.80
2019-05-02T13:12:24.004Z,55.70
2019-05-02T13:17:29.455Z,56.00
2019-05-02T13:22:36.025Z,55.40
2019-05-02T13:27:45.998Z,55.20
2019-05-02T13:32:53.741Z,56.00
2019-05-02T13:37:59.656Z,55.60
2019-05-02T13:43:04.733Z,55.00
2019-05-02T13:48:12.085Z,55.50
2019-05-02T13:53:16.512Z,56.90
2019-05-02T13:58:28.692Z,56.60
2019-05-02T14:03:28.040Z,55.80
2019-05-02T14:08:36.820Z,55.20
2019-05-02T14:13:42.528Z,55.50
2019-05-02T14:18:47.765Z,56.30
2019-05-02T14:23:55.844Z,55.20
2019-05-02T14:29:02.515Z,55.40
2019-05-02T14:34:09.151Z,55.60
2019-05-02T14:39:14.080Z,55.40
2019-05-02T14:44:23.391Z,55.10
2019-05-02T14:49:26.930Z,54.70
2019-05-02T14:54:32.523Z,54.90
2019-05-02T14:59:37.637Z,55.40
2019-05-02T15:04:44.548Z,55.60
2019-05-02T15:09:49.328Z,54.50
2019-05-02T15:14:58.665Z,53.40
2019-05-02T15:20:02.841Z,53.90
2019-05-02T15:25:15.837Z,51.00
2019-05-02T15:30:16.158Z,51.10
2019-05-02T15:35:26.682Z,48.80
2019-05-02T15:45:36.665Z,48.90
2019-05-02T15:50:50.091Z,47.10
2019-05-02T15:55:52.558Z,49.80
2019-05-02T16:01:01.709Z,52.70
2019-05-02T16:06:08.716Z,54.30
2019-05-02T16:11:17.200Z,54.80
2019-05-02T16:16:22.612Z,54.40
2019-05-02T16:21:32.419Z,55.40
2019-05-02T16:26:42.074Z,55.40
2019-05-02T16:31:45.332Z,54.10
2019-05-02T16:36:51.876Z,47.90
2019-05-02T16:41:56.982Z,42.80
2019-05-02T16:47:02.463Z,43.70
2019-05-02T16:52:08.668Z,45.40
2019-05-02T16:57:17.467Z,47.50
2019-05-02T17:02:21.849Z,48.80
2019-05-02T17:07:28.507Z,45.50
2019-05-02T17:12:33.434Z,46.20
2019-05-02T17:17:38.990Z,45.60
2019-05-02T17:22:49.749Z,49.50
2019-05-02T17:27:53.497Z,52.00
2019-05-02T17:32:58.225Z,53.50
2019-05-02T17:38:03.143Z,54.70
2019-05-02T17:43:08.090Z,55.40
2019-05-02T17:48:16.191Z,56.40
2019-05-02T17:53:19.768Z,57.00
2019-05-02T17:58:24.684Z,57.60
2019-05-02T18:03:30.936Z,58.20
2019-05-02T18:08:36.036Z,58.80
2019-05-02T18:13:42.347Z,59.40
2019-05-02T18:18:47.543Z,60.20
2019-05-02T18:23:52.490Z,60.50
2019-05-02T18:29:02.841Z,61.30
2019-05-02T18:34:04.013Z,61.80
2019-05-02T18:39:09.094Z,62.30
2019-05-02T18:44:17.092Z,63.10
2019-05-02T18:49:23.469Z,63.70
2019-05-02T18:54:28.767Z,64.40
2019-05-02T18:59:34.830Z,64.80
2019-05-02T19:04:41.910Z,65.10
2019-05-02T19:09:51.198Z,65.50
2019-05-02T19:14:57.361Z,66.00
2019-05-02T19:19:59.853Z,66.20
2019-05-02T19:25:05.819Z,66.90
2019-05-02T19:30:11.846Z,67.40
2019-05-02T19:35:16.739Z,67.70
2019-05-02T19:40:28.146Z,68.40
2019-05-02T19:45:32.694Z,69.20
2019-05-02T19:50:41.607Z,69.60
2019-05-02T19:55:44.684Z,70.30
